Time;durP1;ratioP1;P1;durP2;ratioP2;P2;SDS_P1;SDS_P2;PMS_P1;PMS_P2;Temp;Humidity;BMP_temperature;BMP_pressure;BME280_temperature;BME280_humidity;BME280_pressure;Samples;Min_cycle;Max_cycle;Signal;HPM_P1;HPM_P2
2021/06/27 00:01:10;;;;;;;5.80;3.85;;;;;;;26.50;36.88;101254.50;4396034;32;20586;-76
2021/06/27 00:03:36;;;;;;;7.82;4.37;;;;;;;26.36;36.79;101259.34;4401882;32;20434;-77
2021/06/27 00:06:03;;;;;;;5.15;3.70;;;;;;;26.28;37.15;101261.25;4407521;32;20038;-77
2021/06/27 00:08:28;;;;;;;7.60;4.50;;;;;;;26.47;37.00;101261.34;4408289;32;20037;-77
2021/06/27 00:10:58;;;;;;;8.63;4.87;;;;;;;26.17;37.18;101258.44;4407911;32;20041;-76
2021/06/27 00:13:25;;;;;;;7.45;4.53;;;;;;;26.27;37.19;101253.91;4405525;32;20058;-77
2021/06/27 00:15:52;;;;;;;8.32;4.30;;;;;;;26.19;37.25;101252.91;4404553;32;20096;-76
2021/06/27 00:18:21;;;;;;;6.93;4.15;;;;;;;26.07;37.40;101256.41;4406176;32;20022;-77
2021/06/27 00:20:49;;;;;;;5.68;3.35;;;;;;;26.23;37.19;101250.50;4401109;32;20512;-76
2021/06/27 00:23:17;;;;;;;3.87;3.20;;;;;;;26.24;37.31;101248.41;4404522;32;20068;-76
2021/06/27 00:25:43;;;;;;;4.53;3.22;;;;;;;26.27;37.18;101247.34;4407506;32;20025;-77
2021/06/27 00:28:10;;;;;;;5.60;3.22;;;;;;;25.83;38.01;101241.84;4404991;32;20617;-76
2021/06/27 00:30:37;;;;;;;4.62;3.10;;;;;;;26.06;37.67;101243.28;4402022;32;20050;-77
2021/06/27 00:33:04;;;;;;;4.75;3.45;;;;;;;26.20;37.58;101239.28;4404003;32;20030;-78
2021/06/27 00:35:31;;;;;;;8.82;3.50;;;;;;;26.20;37.49;101234.28;4406008;32;20130;-76
2021/06/27 00:37:57;;;;;;;6.75;3.62;;;;;;;26.45;37.14;101229.38;4408538;32;20164;-76
2021/06/27 00:40:26;;;;;;;4.07;3.35;;;;;;;26.02;37.72;101231.28;4405856;32;20080;-77
2021/06/27 00:42:52;;;;;;;6.87;3.80;;;;;;;26.41;37.42;101223.09;4407992;32;20119;-76
2021/06/27 00:45:20;;;;;;;9.60;4.43;;;;;;;26.32;37.64;101223.44;4407045;32;20426;-76
2021/06/27 00:47:47;;;;;;;7.45;4.20;;;;;;;26.43;37.57;101214.69;4407784;32;20461;-76
2021/06/27 00:50:20;;;;;;;8.02;3.90;;;;;;;26.32;37.63;101211.91;4402869;32;20855;-76
2021/06/27 00:52:47;;;;;;;8.68;4.10;;;;;;;26.54;37.26;101220.37;4402725;32;20038;-76
2021/06/27 00:55:13;;;;;;;5.12;3.08;;;;;;;26.32;37.63;101209.78;4404953;32;20079;-77
2021/06/27 00:57:42;;;;;;;4.12;3.22;;;;;;;26.17;37.85;101214.38;4407962;32;20072;-77
2021/06/27 01:00:10;;;;;;;5.93;3.15;;;;;;;26.32;37.40;101211.91;4407460;32;20078;-77
2021/06/27 01:02:37;;;;;;;6.22;2.97;;;;;;;26.35;37.53;101213.72;4403189;32;20096;-77
2021/06/27 01:05:08;;;;;;;5.12;4.00;;;;;;;26.22;37.70;101216.44;4402881;32;20504;-77
2021/06/27 01:07:33;;;;;;;6.43;3.85;;;;;;;26.50;37.33;101214.09;4407528;32;20056;-77
2021/06/27 01:10:00;;;;;;;6.47;3.58;;;;;;;26.07;37.83;101207.34;4402706;32;20046;-77
2021/06/27 01:12:26;;;;;;;5.50;3.47;;;;;;;26.21;37.82;101206.22;4407623;32;20161;-77
2021/06/27 01:14:54;;;;;;;4.43;3.00;;;;;;;26.03;38.02;101216.31;4403434;32;20034;-76
2021/06/27 01:17:21;;;;;;;6.28;3.30;;;;;;;25.82;38.67;101215.09;4402664;32;20444;-77
2021/06/27 01:19:46;;;;;;;7.12;3.25;;;;;;;25.93;38.62;101214.25;4405410;32;20053;-77
2021/06/27 01:22:12;;;;;;;8.00;3.55;;;;;;;25.66;39.20;101206.53;4404357;32;20046;-77
2021/06/27 01:24:38;;;;;;;5.30;2.97;;;;;;;25.93;38.64;101212.16;4404422;32;20060;-77
2021/06/27 01:27:04;;;;;;;6.30;3.20;;;;;;;26.00;38.29;101213.72;4404400;32;20088;-76
2021/06/27 01:29:29;;;;;;;4.07;3.03;;;;;;;26.08;38.50;101209.69;4404432;32;20034;-76
2021/06/27 01:31:57;;;;;;;6.40;3.55;;;;;;;25.90;38.69;101201.69;4398978;32;20064;-76
2021/06/27 01:34:23;;;;;;;4.32;3.28;;;;;;;26.13;38.61;101197.34;4403719;32;20141;-77
2021/06/27 01:36:48;;;;;;;6.78;3.55;;;;;;;26.00;38.80;101190.63;4404834;32;20095;-77
2021/06/27 01:39:14;;;;;;;5.60;3.78;;;;;;;25.93;38.78;101191.97;4405633;32;20064;-76
2021/06/27 01:41:55;;;;;;;6.00;3.30;;;;;;;25.81;39.16;101196.25;4403879;32;20484;-77
2021/06/27 01:44:20;;;;;;;5.55;3.90;;;;;;;26.20;38.61;101185.22;4401104;32;20096;-77
2021/06/27 01:46:46;;;;;;;6.22;3.75;;;;;;;25.86;38.97;101186.75;4408840;32;20397;-77
2021/06/27 01:49:13;;;;;;;4.85;3.60;;;;;;;25.68;39.29;101192.41;4404061;32;20110;-77
2021/06/27 01:51:40;;;;;;;6.95;3.42;;;;;;;25.99;38.86;101189.87;4399632;32;20361;-77
2021/06/27 01:54:07;;;;;;;4.50;3.25;;;;;;;25.98;39.01;101188.28;4404407;32;20070;-78
2021/06/27 01:56:34;;;;;;;5.82;3.50;;;;;;;25.93;39.26;101191.97;4404558;32;20065;-77
2021/06/27 01:59:03;;;;;;;5.22;3.53;;;;;;;25.86;39.31;101191.75;4401932;32;20034;-78
2021/06/27 02:01:35;;;;;;;6.35;3.40;;;;;;;25.62;39.61;101197.41;4403993;32;20082;-77
2021/06/27 02:04:01;;;;;;;6.78;2.97;;;;;;;26.00;39.08;101187.75;4402540;32;20056;-77
2021/06/27 02:06:28;;;;;;;4.40;3.30;;;;;;;25.86;39.01;101192.53;4402921;32;20082;-77
2021/06/27 02:08:58;;;;;;;5.18;3.37;;;;;;;26.00;39.14;101185.66;4406338;32;20038;-77
2021/06/27 02:11:28;;;;;;;7.32;3.08;;;;;;;25.92;39.19;101184.62;4403933;32;20091;-77
2021/06/27 02:13:55;;;;;;;6.50;3.37;;;;;;;25.99;38.96;101183.31;4407538;32;20029;-78
2021/06/27 02:16:21;;;;;;;4.93;3.30;;;;;;;25.69;39.79;101179.53;4406138;32;20116;-77
2021/06/27 02:18:49;;;;;;;5.50;3.50;;;;;;;25.63;39.60;101178.78;4408639;32;20034;-77
2021/06/27 02:21:20;;;;;;;4.32;3.05;;;;;;;25.91;39.53;101171.53;4402324;32;20096;-78
2021/06/27 02:23:46;;;;;;;6.30;3.17;;;;;;;25.88;39.51;101168.91;4406417;32;20092;-76
2021/06/27 02:26:11;;;;;;;7.95;3.90;;;;;;;25.70;39.80;101169.56;4407943;32;20467;-76
2021/06/27 02:28:38;;;;;;;11.73;3.42;;;;;;;25.75;39.75;101174.53;4405672;32;20038;-76
2021/06/27 02:31:04;;;;;;;4.47;3.17;;;;;;;25.56;39.91;101168.63;4406420;32;20042;-76
2021/06/27 02:33:30;;;;;;;5.50;3.28;;;;;;;25.91;39.43;101165.75;4401111;32;20091;-77
2021/06/27 02:35:58;;;;;;;5.97;4.00;;;;;;;25.86;39.71;101172.34;4406580;32;20072;-76
2021/06/27 02:38:24;;;;;;;5.18;3.95;;;;;;;25.77;39.86;101169.00;4408322;32;20067;-77
2021/06/27 02:40:51;;;;;;;8.90;4.60;;;;;;;25.74;39.89;101173.72;4405885;32;20543;-77
2021/06/27 02:43:18;;;;;;;7.18;4.57;;;;;;;25.86;39.85;101162.94;4406120;32;20046;-77
2021/06/27 02:45:46;;;;;;;7.60;4.28;;;;;;;25.64;40.09;101163.06;4392503;32;20150;-77
2021/06/27 02:48:12;;;;;;;7.78;4.68;;;;;;;25.91;39.96;101159.19;4388545;32;20042;-77
2021/06/27 02:50:39;;;;;;;6.07;4.03;;;;;;;25.83;39.99;101158.22;4401618;32;20328;-76
2021/06/27 02:53:07;;;;;;;9.15;4.53;;;;;;;25.60;40.24;101154.69;4408090;32;20085;-77
2021/06/27 02:55:33;;;;;;;7.18;4.40;;;;;;;25.79;40.16;101158.50;4408515;32;20479;-77
2021/06/27 02:57:58;;;;;;;10.38;4.87;;;;;;;25.37;40.86;101156.13;4407138;32;20089;-77
2021/06/27 03:00:24;;;;;;;8.77;5.15;;;;;;;25.73;40.08;101149.09;4405905;32;20482;-76
2021/06/27 03:02:50;;;;;;;8.20;6.10;;;;;;;25.55;40.58;101152.63;4403403;32;20103;-77
2021/06/27 03:05:17;;;;;;;12.05;8.18;;;;;;;25.64;40.39;101148.66;4408002;32;20084;-78
2021/06/27 03:07:43;;;;;;;14.73;9.15;;;;;;;25.66;40.46;101146.00;4404850;32;20064;-78
2021/06/27 03:10:13;;;;;;;13.77;8.70;;;;;;;25.50;40.76;101141.13;4404528;32;20430;-77
2021/06/27 03:12:41;;;;;;;14.80;8.57;;;;;;;25.68;40.64;101135.50;4406622;32;20057;-76
2021/06/27 03:15:08;;;;;;;14.27;8.68;;;;;;;25.53;41.02;101135.09;4406586;32;20409;-77
2021/06/27 03:17:34;;;;;;;16.75;9.23;;;;;;;25.46;41.18;101140.66;4404183;32;20042;-77
2021/06/27 03:20:00;;;;;;;15.98;9.23;;;;;;;25.30;41.42;101133.62;4406465;32;20030;-77
2021/06/27 03:22:25;;;;;;;15.77;8.70;;;;;;;25.28;41.39;101137.03;4404195;32;20473;-77
2021/06/27 03:24:51;;;;;;;14.85;8.95;;;;;;;25.48;41.07;101135.91;4407233;32;20065;-77
2021/06/27 03:27:19;;;;;;;15.40;9.40;;;;;;;25.47;41.15;101124.91;4407621;32;20068;-78
2021/06/27 03:29:46;;;;;;;14.23;8.90;;;;;;;25.32;41.41;101128.16;4401287;32;20745;-76
2021/06/27 03:32:11;;;;;;;13.43;7.95;;;;;;;25.31;41.59;101120.75;4402661;32;20112;-76
2021/06/27 03:34:37;;;;;;;13.75;8.57;;;;;;;25.33;41.42;101124.72;4406597;32;20014;-77
2021/06/27 03:37:03;;;;;;;13.20;7.95;;;;;;;25.20;41.80;101126.59;4407760;32;20077;-77
2021/06/27 03:39:29;;;;;;;15.45;7.97;;;;;;;25.33;41.48;101123.94;4404802;32;20434;-76
2021/06/27 03:41:55;;;;;;;10.95;7.37;;;;;;;25.32;41.55;101125.25;4407282;32;20052;-78
2021/06/27 03:44:23;;;;;;;17.37;8.05;;;;;;;25.17;41.90;101122.69;4407061;32;20092;-76
2021/06/27 03:46:49;;;;;;;16.15;6.97;;;;;;;25.29;42.10;101123.41;4404872;32;20023;-76
2021/06/27 03:49:16;;;;;;;14.38;7.30;;;;;;;25.16;42.05;101123.22;4406653;32;20175;-76
2021/06/27 03:51:42;;;;;;;13.77;7.32;;;;;;;25.33;41.70;101126.81;4402808;32;20461;-77
2021/06/27 03:54:08;;;;;;;11.82;7.50;;;;;;;25.18;41.89;101127.12;4404282;32;20030;-78
2021/06/27 03:56:34;;;;;;;12.05;7.15;;;;;;;25.07;42.17;101120.66;4408427;32;20412;-76
2021/06/27 03:59:00;;;;;;;11.80;6.40;;;;;;;25.21;41.87;101120.31;4403919;32;20064;-78
2021/06/27 04:01:26;;;;;;;14.30;7.28;;;;;;;25.38;41.60;101123.91;4399808;32;20076;-77
2021/06/27 04:03:52;;;;;;;15.05;7.62;;;;;;;25.30;41.46;101122.88;4406503;32;20135;-76
2021/06/27 04:06:17;;;;;;;12.15;6.90;;;;;;;25.43;41.43;101115.78;4405504;32;20034;-76
2021/06/27 04:08:43;;;;;;;11.32;6.65;;;;;;;25.38;41.52;101123.91;4404151;32;20363;-77
2021/06/27 04:11:09;;;;;;;10.82;7.40;;;;;;;25.37;41.27;101127.31;4405691;32;20096;-76
2021/06/27 04:13:36;;;;;;;13.90;7.40;;;;;;;25.33;nan;101124.72;4404728;32;20098;-77
2021/06/27 04:16:04;;;;;;;13.32;7.20;;;;;;;25.41;41.54;101122.06;4406862;32;20093;-76
2021/06/27 04:18:30;;;;;;;12.73;7.62;;;;;;;25.37;41.37;101120.78;4403455;32;20129;-77
2021/06/27 04:20:57;;;;;;;12.20;7.53;;;;;;;25.15;41.61;101116.66;4406267;32;20072;-77
2021/06/27 04:23:24;;;;;;;13.90;7.95;;;;;;;25.61;40.99;101123.78;4404918;32;20063;-77
2021/06/27 04:25:50;;;;;;;13.18;8.15;;;;;;;25.63;40.91;101121.13;4402433;32;20097;-77
2021/06/27 04:28:16;;;;;;;12.30;8.38;;;;;;;25.41;41.32;101127.03;4405397;32;20329;-77
2021/06/27 04:30:43;;;;;;;12.82;7.72;;;;;;;25.44;41.27;101123.09;4400764;32;20089;-77
2021/06/27 04:33:10;;;;;;;11.48;7.70;;;;;;;25.61;41.00;101115.91;4403064;32;20415;-77
2021/06/27 04:35:38;;;;;;;14.23;8.02;;;;;;;25.49;41.19;101125.94;4403597;32;20089;-74
2021/06/27 04:38:06;;;;;;;14.52;7.43;;;;;;;25.68;41.03;101120.31;4392621;32;20119;-75
2021/06/27 04:40:32;;;;;;;12.77;7.40;;;;;;;25.71;40.95;101111.37;4400058;32;20104;-75
2021/06/27 04:42:58;;;;;;;13.13;7.78;;;;;;;25.66;41.15;101114.31;4406921;32;20122;-78
2021/06/27 04:45:25;;;;;;;14.07;6.72;;;;;;;25.38;41.42;101115.25;4403629;32;20486;-77
2021/06/27 04:47:51;;;;;;;14.93;7.12;;;;;;;25.43;41.13;101115.78;4407495;32;20486;-77
2021/06/27 04:50:16;;;;;;;12.63;6.72;;;;;;;25.43;41.32;101113.66;4403774;32;20511;-76
2021/06/27 04:52:42;;;;;;;12.02;7.25;;;;;;;25.58;41.01;101116.22;4389212;32;20025;-76
2021/06/27 04:55:09;;;;;;;12.05;7.05;;;;;;;25.60;40.96;101119.31;4404852;32;20027;-75
2021/06/27 04:57:35;;;;;;;11.88;7.00;;;;;;;25.66;40.78;101115.09;4405501;32;20071;-76
2021/06/27 05:00:02;;;;;;;12.93;7.40;;;;;;;25.67;40.61;101116.66;4402833;32;20100;-76
2021/06/27 05:02:28;;;;;;;10.93;6.78;;;;;;;25.69;40.83;101119.78;4403372;32;20398;-76
2021/06/27 05:04:53;;;;;;;11.93;7.32;;;;;;;25.58;40.86;101131.38;4403707;32;20439;-76
2021/06/27 05:07:19;;;;;;;20.00;8.75;;;;;;;25.68;40.62;101121.09;4405489;32;20479;-76
2021/06/27 05:09:44;;;;;;;15.48;7.75;;;;;;;25.58;40.85;101119.84;4401478;32;20056;-75
2021/06/27 05:12:10;;;;;;;16.70;8.43;;;;;;;25.71;40.61;101110.59;4404064;32;20194;-76
2021/06/27 05:14:36;;;;;;;10.98;7.00;;;;;;;25.61;40.77;101112.25;4403760;32;20057;-76
2021/06/27 05:17:01;;;;;;;12.48;6.97;;;;;;;25.65;40.66;101110.66;4406017;32;20089;-76
2021/06/27 05:19:27;;;;;;;14.68;7.32;;;;;;;25.74;40.56;101100.88;4389184;32;20057;-76
2021/06/27 05:21:53;;;;;;;15.30;7.82;;;;;;;25.78;40.52;101110.81;4402694;32;20151;-76
2021/06/27 05:24:19;;;;;;;12.43;7.65;;;;;;;25.58;40.75;101113.31;4400988;32;20064;-75
2021/06/27 05:26:46;;;;;;;18.00;8.05;;;;;;;25.71;40.60;101113.50;4405605;32;20392;-75
2021/06/27 05:29:12;;;;;;;14.10;7.87;;;;;;;25.83;40.52;101117.84;4405237;32;20093;-76
2021/06/27 05:31:38;;;;;;;15.63;8.07;;;;;;;25.73;40.43;101102.97;4401941;32;20123;-75
2021/06/27 05:34:05;;;;;;;12.95;7.87;;;;;;;25.87;40.44;101106.81;4403859;32;20057;-75
2021/06/27 05:36:37;;;;;;;13.30;7.50;;;;;;;26.11;39.98;101104.00;4400993;32;20065;-75
2021/06/27 05:39:05;;;;;;;17.62;8.27;;;;;;;26.06;40.12;101104.84;4403035;32;20077;-76
2021/06/27 05:41:31;;;;;;;13.60;8.25;;;;;;;26.33;39.93;101106.69;4403335;32;20097;-76
2021/06/27 05:43:57;;;;;;;12.60;7.70;;;;;;;26.30;39.67;101113.53;4405192;32;20074;-75
2021/06/27 05:46:23;;;;;;;12.45;8.15;;;;;;;26.44;39.30;101100.78;4404421;32;20473;-76
2021/06/27 05:48:48;;;;;;;14.93;7.43;;;;;;;26.66;39.05;101097.72;4406530;32;20097;-76
2021/06/27 05:51:14;;;;;;;14.30;7.53;;;;;;;26.88;38.72;101103.22;4404462;32;20072;-76
2021/06/27 05:53:40;;;;;;;15.07;7.18;;;;;;;26.78;38.59;101105.69;4407295;32;20080;-76
2021/06/27 05:56:10;;;;;;;14.55;7.85;;;;;;;27.01;37.94;101109.88;4403250;32;20117;-76
2021/06/27 05:58:37;;;;;;;13.05;7.72;;;;;;;26.97;38.12;101106.50;4409464;32;20034;-76
2021/06/27 06:01:05;;;;;;;16.23;8.18;;;;;;;27.05;38.19;101104.56;4406165;32;20101;-75
2021/06/27 06:03:30;;;;;;;14.45;7.62;;;;;;;26.97;38.56;101108.63;4407845;32;20378;-75
2021/06/27 06:05:56;;;;;;;16.25;7.20;;;;;;;26.72;38.55;101112.88;4405787;32;20050;-76
2021/06/27 06:08:22;;;;;;;12.68;7.28;;;;;;;26.68;38.48;101109.47;4408927;32;20513;-75
2021/06/27 06:10:47;;;;;;;16.10;7.37;;;;;;;26.63;38.80;101107.47;4404649;32;20475;-76
2021/06/27 06:13:13;;;;;;;10.82;6.85;;;;;;;26.30;39.15;101111.44;4406903;32;20382;-76
2021/06/27 06:15:38;;;;;;;12.10;7.45;;;;;;;26.59;38.86;101112.69;4408169;32;20086;-76
2021/06/27 06:18:04;;;;;;;12.90;7.07;;;;;;;26.53;39.14;101107.00;4408047;32;20077;-75
2021/06/27 06:20:30;;;;;;;12.40;7.35;;;;;;;26.45;39.42;101111.03;4405473;32;20488;-76
2021/06/27 06:22:55;;;;;;;10.27;7.32;;;;;;;26.39;39.49;101113.19;4404302;32;20628;-75
2021/06/27 06:25:21;;;;;;;14.75;7.28;;;;;;;26.58;39.22;101108.25;4406502;32;20177;-75
2021/06/27 06:27:47;;;;;;;12.15;6.65;;;;;;;26.36;39.25;101106.41;4407345;32;20058;-75
2021/06/27 06:30:14;;;;;;;11.77;6.62;;;;;;;26.58;39.11;101096.72;4405784;32;20543;-76
2021/06/27 06:32:40;;;;;;;12.00;6.60;;;;;;;26.79;38.99;101101.47;4405589;32;20065;-75
2021/06/27 06:35:06;;;;;;;10.75;7.18;;;;;;;26.72;38.72;101104.22;4407154;32;20042;-76
2021/06/27 06:37:32;;;;;;;14.40;6.72;;;;;;;26.50;39.21;101092.84;4405473;32;20115;-75
2021/06/27 06:39:58;;;;;;;13.40;6.87;;;;;;;26.71;39.11;101102.63;4404430;32;20148;-75
2021/06/27 06:42:23;;;;;;;12.52;6.93;;;;;;;26.88;38.88;101106.88;4403151;32;20073;-76
2021/06/27 06:44:50;;;;;;;12.02;6.93;;;;;;;26.92;38.51;101109.47;4405453;32;20442;-75
2021/06/27 06:47:15;;;;;;;10.25;6.40;;;;;;;27.03;38.60;101113.00;4404744;32;20075;-76
2021/06/27 06:49:43;;;;;;;11.93;6.53;;;;;;;27.26;38.25;101107.72;4405158;32;20076;-76
2021/06/27 06:52:08;;;;;;;13.38;6.60;;;;;;;27.28;38.04;101110.88;4405990;32;20159;-75
2021/06/27 06:54:35;;;;;;;10.55;7.65;;;;;;;27.20;38.35;101109.88;4403963;32;20050;-76
2021/06/27 06:57:01;;;;;;;14.02;7.25;;;;;;;27.07;38.47;101121.34;4407656;32;20099;-75
2021/06/27 06:59:26;;;;;;;14.15;7.95;;;;;;;27.41;38.00;101124.59;4408020;32;20513;-75
2021/06/27 07:01:53;;;;;;;15.13;7.60;;;;;;;26.97;38.62;101114.41;4405196;32;20112;-76
2021/06/27 07:04:18;;;;;;;13.95;8.73;;;;;;;27.19;38.17;101120.66;4408343;32;20030;-76
2021/06/27 07:06:44;;;;;;;13.32;8.27;;;;;;;27.17;38.47;101116.75;4404078;32;20064;-75
2021/06/27 07:09:10;;;;;;;12.05;6.85;;;;;;;27.26;38.32;101116.41;4406515;32;20600;-75
2021/06/27 07:11:36;;;;;;;11.77;7.05;;;;;;;27.13;38.61;101125.72;4407738;32;20098;-76
2021/06/27 07:14:04;;;;;;;11.82;7.03;;;;;;;27.43;38.23;101122.75;4407574;32;20501;-76
2021/06/27 07:16:30;;;;;;;15.90;8.73;;;;;;;27.60;37.99;101123.28;4408228;32;20146;-76
2021/06/27 07:18:55;;;;;;;13.10;8.52;;;;;;;27.83;37.36;101127.41;4401243;32;20085;-76
2021/06/27 07:21:21;;;;;;;13.27;8.90;;;;;;;27.59;37.75;101126.72;4404413;32;20502;-76
2021/06/27 07:23:47;;;;;;;14.38;10.00;;;;;;;27.67;37.76;101131.31;4402755;32;20050;-76
2021/06/27 07:26:13;;;;;;;14.25;9.00;;;;;;;27.63;37.68;101133.75;4405908;32;20099;-75
2021/06/27 07:28:39;;;;;;;12.07;7.97;;;;;;;27.98;37.09;101136.38;4408458;32;20046;-75
2021/06/27 07:31:05;;;;;;;11.55;7.95;;;;;;;27.84;37.14;101139.72;4403810;32;20081;-76
2021/06/27 07:33:30;;;;;;;12.82;8.70;;;;;;;28.30;36.53;101122.69;4403647;32;20526;-76
2021/06/27 07:35:56;;;;;;;12.60;8.15;;;;;;;28.18;36.74;101126.31;4407287;32;20072;-76
2021/06/27 07:38:22;;;;;;;13.05;7.57;;;;;;;28.41;36.31;101124.59;4407134;32;20112;-77
2021/06/27 07:40:48;;;;;;;13.57;7.68;;;;;;;28.52;35.85;101118.59;4406418;32;20097;-76
2021/06/27 07:43:13;;;;;;;11.23;6.95;;;;;;;28.01;36.89;101114.25;4409585;32;20081;-76
2021/06/27 07:45:42;;;;;;;11.95;7.22;;;;;;;28.39;36.17;101124.34;4403984;32;20106;-77
2021/06/27 07:48:08;;;;;;;12.40;6.78;;;;;;;28.82;35.26;101119.06;4401480;32;20072;-78
2021/06/27 07:50:34;;;;;;;11.68;7.12;;;;;;;29.13;34.90;101126.88;4406427;32;20474;-77
2021/06/27 07:53:00;;;;;;;10.25;7.10;;;;;;;28.91;35.03;101119.41;4402640;32;20432;-77
2021/06/27 07:55:26;;;;;;;9.48;6.60;;;;;;;29.28;34.54;101120.50;4404390;32;20034;-76
2021/06/27 07:57:52;;;;;;;10.35;7.07;;;;;;;29.76;33.71;101123.62;4405480;32;20580;-78
2021/06/27 08:00:18;;;;;;;9.65;6.40;;;;;;;29.34;34.36;101121.16;4401778;32;20285;-77
2021/06/27 08:02:44;;;;;;;11.70;6.07;;;;;;;29.26;34.61;101132.66;4404810;32;20612;-77
2021/06/27 08:05:10;;;;;;;9.57;5.28;;;;;;;29.21;34.34;101124.87;4403866;32;20074;-77
2021/06/27 08:07:36;;;;;;;7.05;5.03;;;;;;;29.17;34.50;101117.84;4406004;32;20064;-77
2021/06/27 08:10:04;;;;;;;9.32;5.97;;;;;;;28.78;34.96;101119.41;4403089;32;20086;-77
2021/06/27 08:12:31;;;;;;;9.95;6.10;;;;;;;28.62;35.45;101123.41;4406434;32;20447;-77
2021/06/27 08:14:57;;;;;;;10.23;5.95;;;;;;;28.70;35.38;101126.44;4406344;32;20076;-78
2021/06/27 08:17:24;;;;;;;10.18;5.30;;;;;;;28.65;35.53;101125.19;4406465;32;20105;-78
2021/06/27 08:19:50;;;;;;;8.55;5.57;;;;;;;28.27;36.24;101117.19;4403738;32;20054;-78
2021/06/27 08:22:16;;;;;;;12.65;5.60;;;;;;;28.10;36.55;101114.59;4401096;32;20050;-77
2021/06/27 08:24:42;;;;;;;10.10;5.10;;;;;;;28.24;36.47;101110.41;4403370;32;20122;-77
2021/06/27 08:27:09;;;;;;;11.05;5.28;;;;;;;28.31;36.40;101115.53;4405314;32;20487;-77
2021/06/27 08:29:36;;;;;;;7.10;5.00;;;;;;;28.17;36.65;101110.28;4404936;32;20049;-77
2021/06/27 08:32:03;;;;;;;8.82;5.05;;;;;;;28.17;36.64;101116.06;4406492;32;20532;-77
2021/06/27 08:34:29;;;;;;;6.40;3.90;;;;;;;28.08;36.36;101114.38;4406210;32;20135;-77
2021/06/27 08:36:55;;;;;;;7.03;3.75;;;;;;;27.86;36.52;101120.53;4404051;32;20063;-78
2021/06/27 08:39:21;;;;;;;9.07;4.07;;;;;;;27.86;36.44;101123.44;4406334;32;20197;-77
2021/06/27 08:41:48;;;;;;;7.05;4.20;;;;;;;27.93;36.35;101114.09;4394077;32;20042;-78
2021/06/27 08:44:14;;;;;;;7.12;5.10;;;;;;;28.14;36.29;101106.38;4404056;32;20065;-77
2021/06/27 08:46:42;;;;;;;7.85;4.68;;;;;;;28.06;36.25;101110.47;4400855;32;20074;-77
2021/06/27 08:49:11;;;;;;;8.05;4.62;;;;;;;28.36;35.89;101111.78;4404042;32;20077;-77
2021/06/27 08:51:39;;;;;;;9.27;4.70;;;;;;;28.12;36.08;101114.84;4406755;32;20142;-77
2021/06/27 08:54:08;;;;;;;6.93;4.65;;;;;;;28.45;35.53;101114.28;4405380;32;20089;-78
2021/06/27 08:56:34;;;;;;;8.32;4.87;;;;;;;28.75;35.27;101105.28;4404579;32;20073;-77
2021/06/27 08:59:00;;;;;;;6.50;4.60;;;;;;;28.86;34.87;101105.81;4405131;32;20363;-77
2021/06/27 09:01:26;;;;;;;7.15;4.85;;;;;;;28.75;35.03;101097.34;4402081;32;20611;-77
2021/06/27 09:03:52;;;;;;;6.07;4.55;;;;;;;29.07;34.46;101102.25;4391677;32;20105;-77
2021/06/27 09:06:27;;;;;;;8.07;4.50;;;;;;;29.45;34.13;101097.72;4405202;32;20064;-77
2021/06/27 09:12:10;;;;;;;6.90;4.40;;;;;;;30.55;32.26;101094.94;3980510;32;15151154;-76
2021/06/27 09:14:38;;;;;;;8.05;5.37;;;;;;;30.55;32.26;101094.94;4438884;32;20099;-78
2021/06/27 09:22:33;;;;;;;8.70;4.97;;;;;;;29.81;33.84;101087.09;3998811;31;15027216;-76
2021/06/27 09:30:45;;;;;;;8.20;4.62;;;;;;;29.62;33.90;101083.63;3983330;32;15028283;-75
2021/06/27 09:33:17;;;;;;;8.07;4.25;;;;;;;29.62;33.90;101083.63;4434431;32;20072;-76
2021/06/27 09:43:37;;;;;;;6.82;3.83;;;;;;;29.85;33.28;101081.75;3984078;32;15024563;-76
2021/06/27 09:46:15;;;;;;;6.30;4.00;;;;;;;29.85;33.28;101081.75;4436867;32;20104;-76
2021/06/27 09:48:58;;;;;;;5.60;3.70;;;;;;;29.72;33.20;101076.78;4437554;32;20095;-75
2021/06/27 09:51:30;;;;;;;7.68;3.97;;;;;;;29.83;32.91;101072.81;4432302;32;20121;-75
2021/06/27 09:53:57;;;;;;;9.13;4.72;;;;;;;29.29;34.20;101070.66;4436796;32;20510;-78
2021/06/27 09:56:24;;;;;;;7.57;4.07;;;;;;;29.36;34.11;101063.41;4441909;32;20051;-76
2021/06/27 10:01:36;;;;;;;6.35;3.67;;;;;;;30.09;32.97;101056.03;3973858;32;15021968;-76
2021/06/27 10:04:03;;;;;;;5.87;4.25;;;;;;;30.09;32.97;101056.03;4431484;32;20041;-75
2021/06/27 10:06:31;;;;;;;6.50;3.87;;;;;;;29.79;32.92;101052.84;4430452;32;20062;-77
2021/06/27 10:09:17;;;;;;;7.22;3.97;;;;;;;30.20;32.55;101043.37;4432529;32;20033;-76
2021/06/27 10:17:16;;;;;;;4.82;3.08;;;;;;;31.53;30.58;101052.62;3983857;32;15023390;-76
2021/06/27 10:19:43;;;;;;;4.87;3.47;;;;;;;31.53;30.58;101052.62;4433666;32;20099;-75
2021/06/27 10:22:09;;;;;;;6.72;4.12;;;;;;;30.63;31.88;101046.38;4436043;32;21201;-75
2021/06/27 10:24:34;;;;;;;6.85;3.62;;;;;;;30.29;32.37;101037.84;4439589;32;20431;-76
2021/06/27 10:27:00;;;;;;;5.82;3.75;;;;;;;30.18;32.62;101043.94;4437035;32;20487;-78
2021/06/27 10:29:26;;;;;;;6.50;3.78;;;;;;;30.40;32.36;101042.56;4437852;32;20083;-77
2021/06/27 10:31:54;;;;;;;8.95;3.58;;;;;;;30.54;32.36;101044.78;4434707;32;20037;-77
2021/06/27 10:34:21;;;;;;;6.68;4.57;;;;;;;30.83;31.77;101046.34;4436041;32;20026;-77
2021/06/27 10:36:54;;;;;;;4.90;4.07;;;;;;;30.90;31.56;101044.84;4440760;32;20090;-78
2021/06/27 10:39:20;;;;;;;6.28;4.43;;;;;;;31.01;31.50;101044.47;4438132;32;20183;-77
2021/06/27 10:42:04;;;;;;;7.53;4.30;;;;;;;30.46;32.35;101048.97;4436176;32;20509;-77
2021/06/27 10:44:57;;;;;;;6.55;4.43;;;;;;;30.07;33.10;101047.09;4437641;32;20052;-77
2021/06/27 10:47:37;;;;;;;6.93;4.45;;;;;;;30.15;32.88;101052.97;4437685;32;20033;-77
2021/06/27 10:50:05;;;;;;;6.47;4.53;;;;;;;30.25;33.11;101057.75;4432232;32;20092;-77
2021/06/27 10:58:07;;;;;;;6.70;4.10;;;;;;;30.06;33.96;101062.22;3981280;32;15022178;-77
2021/06/27 11:03:34;;;;;;;6.93;4.00;;;;;;;29.99;33.86;101057.87;3982964;32;15023892;-75
2021/06/27 11:06:02;;;;;;;6.40;4.18;;;;;;;29.99;33.86;101057.87;4438824;32;20068;-75
2021/06/27 11:11:16;;;;;;;6.28;4.32;;;;;;;29.94;33.72;101052.25;3982900;32;15027363;-76
2021/06/27 11:13:44;;;;;;;7.47;4.75;;;;;;;29.94;33.72;101052.25;4436642;32;20426;-75
2021/06/27 11:16:13;;;;;;;8.18;3.80;;;;;;;29.58;34.24;101036.75;4438972;32;20034;-76
2021/06/27 11:21:20;;;;;;;8.40;4.70;;;;;;;30.05;33.97;101049.03;3981346;32;15024915;-77
2021/06/27 11:34:56;;;;;;;8.85;5.05;;;;;;;29.73;34.04;101043.50;3982673;32;15025980;-76
2021/06/27 11:40:02;;;;;;;9.48;5.43;;;;;;;29.84;33.77;101040.44;3954664;32;15740525;-76
2021/06/27 11:47:43;;;;;;;9.50;5.15;;;;;;;30.71;32.52;101041.41;3981774;32;15033320;-77
2021/06/27 11:52:55;;;;;;;8.15;4.75;;;;;;;31.05;31.85;101030.37;3982168;32;15032990;-75
2021/06/27 11:55:32;;;;;;;7.82;4.87;;;;;;;31.05;31.85;101030.37;4433168;32;20078;-75
2021/06/27 11:57:58;;;;;;;7.53;4.28;;;;;;;30.79;32.04;101025.59;4435899;32;20030;-75
2021/06/27 12:03:11;;;;;;;7.95;4.68;;;;;;;31.20;31.59;101030.41;3983167;32;15024443;-76
2021/06/27 12:05:38;;;;;;;6.93;4.87;;;;;;;31.20;31.59;101030.41;4437855;32;20045;-76
2021/06/27 12:08:05;;;;;;;8.43;4.95;;;;;;;30.27;32.85;101013.63;4436029;32;20038;-76
2021/06/27 12:10:31;;;;;;;6.68;4.68;;;;;;;30.62;32.45;101028.16;4439424;32;20072;-76
2021/06/27 12:13:02;;;;;;;9.73;5.12;;;;;;;30.29;32.79;101019.63;4440820;32;20041;-76
2021/06/27 12:20:47;;;;;;;7.97;4.82;;;;;;;31.61;31.15;101015.63;3985270;32;15024647;-77
2021/06/27 12:34:06;;;;;;;10.27;6.00;;;;;;;31.48;31.46;101018.69;3983314;31;15020185;-75
2021/06/27 12:39:21;;;;;;;7.65;4.87;;;;;;;31.61;31.17;101017.75;3955130;32;15726778;-75
2021/06/27 12:41:47;;;;;;;9.07;5.45;;;;;;;31.61;31.17;101017.75;4433699;32;20095;-76
2021/06/27 12:44:16;;;;;;;6.70;4.90;;;;;;;30.46;32.63;101011.22;4429778;32;20171;-78
2021/06/27 12:49:29;;;;;;;6.50;4.75;;;;;;;31.02;32.07;101007.47;3955987;32;15727604;-75